Anglesea, New Jersey
Current Conditions -  °F | °C
As of 9:35 AM on Thursday 27 Nov 2014 (Local Time) from KWWD Reporting Station
Overcast Overcast  
Wind Chill: 34°   Ceiling: 12000
Heat Index: 39°   Visibility: 10mi
Dew Point: 30°   Wind: 8mph
Humidity: 70%   Direction: 290°WNW
Pressure: 30.02"   Gusts: NA
Location:  38.9808°N, 74.8281°W
Report Text: KWWD 271435Z AUTO 29007KT 10SM FEW017 OVC120 04/M01 A3002 RMK AO1
Loading
Personal Weather Stations






























Interactive Weather Map New forecast layout! Learn more

10-Day Weather Forecast

Advertisements
Track Severe Weather on mobile